SCTN

Details ICAO SCTN (WCH)
Name Chaiten
Region Chile
Timezone America/Santiago (UTC-4.0)
Plans Departing 4
Arriving 5
Stats Elevation 13 ft / 4 m (AMSL)
Location -42.932807° -72.699113°
Runways 1
Magnetic Variation 8.966° E
Sunrise 2018-05-21 12:03:48 UTC / 2018-05-21 08:03:48 Local
Sunset 2018-05-21 21:33:51 UTC / 2018-05-21 17:33:51 Local
Advertisement - Login to hide

Runways

ID Width Length Bearing (true) Bearing (mag) Surface Threshold Offset Overrun Length
13 65 ft / 20 m 4,674 ft / 1,425 m 127.00° 118.03° Asphalt 105 ft / 32 m 0 ft / 0 m
31 65 ft / 20 m 4,674 ft / 1,425 m 306.99° 298.02° Asphalt 0 ft / 0 m 0 ft / 0 m

Map

Weather


0- 5 10 15 20 25 30 35+ Temperature / ° C

Clouds and Precipitation
Forecast for 2018-05-21 12:00 UTC. Updated 43 minutes ago

Ground ~20,000 ft ~40,000 ft Winds

METAR

SCTN 211200Z AUTO 05004KT 9999 BKN034 OVC047 06/06 Q1024

TAF

Not found

Frequencies

Tower 126.70 MHz TWR
Warning: Do not use this data for real-world aviation or navigation. No guarantee of current accuracy is given.